createdAt,value
2022-12-04T00:00:24.933Z,-0.14
2022-12-04T00:02:51.464Z,-0.11
2022-12-04T00:05:18.239Z,-0.10
2022-12-04T00:07:46.187Z,-0.09
2022-12-04T00:10:12.829Z,-0.12
2022-12-04T00:12:39.332Z,-0.17
2022-12-04T00:17:53.773Z,-0.26
2022-12-04T00:20:20.359Z,-0.28
2022-12-04T00:22:48.260Z,-0.29
2022-12-04T00:25:15.031Z,-0.34
2022-12-04T00:27:41.534Z,-0.38
2022-12-04T00:30:08.780Z,-0.40
2022-12-04T00:32:35.304Z,-0.42
2022-12-04T00:35:01.814Z,-0.43
2022-12-04T00:37:28.339Z,-0.43
2022-12-04T00:39:56.355Z,-0.44
2022-12-04T00:42:23.137Z,-0.44
2022-12-04T00:44:49.682Z,-0.45
2022-12-04T00:47:16.196Z,-0.47
2022-12-04T00:49:42.694Z,-0.46
2022-12-04T00:52:09.261Z,-0.47
2022-12-04T00:54:35.749Z,-0.45
2022-12-04T00:57:03.716Z,-0.44
2022-12-04T00:59:30.242Z,-0.42
2022-12-04T01:01:56.721Z,-0.42
2022-12-04T01:04:23.298Z,-0.39
2022-12-04T01:06:49.805Z,-0.40
2022-12-04T01:09:16.384Z,-0.42
2022-12-04T01:11:42.914Z,-0.42
2022-12-04T01:14:11.049Z,-0.44
2022-12-04T01:16:39.547Z,-0.42
2022-12-04T01:19:08.887Z,-0.45
2022-12-04T01:21:36.182Z,-0.43
2022-12-04T01:24:03.211Z,-0.44
2022-12-04T01:26:30.018Z,-0.42
2022-12-04T01:28:56.703Z,-0.41
2022-12-04T01:31:25.216Z,-0.41
2022-12-04T01:33:52.053Z,-0.42
2022-12-04T01:36:20.723Z,-0.41
2022-12-04T01:38:47.228Z,-0.42
2022-12-04T01:41:16.687Z,-0.41
2022-12-04T01:43:43.625Z,-0.42
2022-12-04T01:46:10.782Z,-0.42
2022-12-04T01:48:42.353Z,-0.41
2022-12-04T01:51:17.146Z,-0.44
2022-12-04T01:53:48.748Z,-0.42
2022-12-04T01:56:16.808Z,-0.43
2022-12-04T01:58:48.362Z,-0.42
2022-12-04T02:01:14.895Z,-0.40
2022-12-04T02:03:42.995Z,-0.42
2022-12-04T02:06:09.747Z,-0.41
2022-12-04T02:08:37.412Z,-0.41
2022-12-04T02:11:18.565Z,-0.41
2022-12-04T02:13:53.131Z,-0.38
2022-12-04T02:16:25.550Z,-0.38
2022-12-04T02:19:00.446Z,-0.39
2022-12-04T02:21:33.728Z,-0.41
2022-12-04T02:24:21.349Z,-0.40
2022-12-04T02:26:53.230Z,-0.40
2022-12-04T02:29:30.274Z,-0.42
2022-12-04T02:32:02.881Z,-0.42
2022-12-04T02:34:35.283Z,-0.44
2022-12-04T02:37:08.420Z,-0.43
2022-12-04T02:39:40.604Z,-0.44
2022-12-04T02:42:12.447Z,-0.42
2022-12-04T02:44:45.072Z,-0.44
2022-12-04T02:47:14.658Z,-0.43
2022-12-04T02:49:44.901Z,-0.44
2022-12-04T02:52:14.386Z,-0.44
2022-12-04T02:54:45.654Z,-0.42
2022-12-04T02:57:16.777Z,-0.43
2022-12-04T02:59:46.405Z,-0.43
2022-12-04T03:02:19.600Z,-0.43
2022-12-04T03:04:49.035Z,-0.43
2022-12-04T03:07:20.290Z,-0.43
2022-12-04T03:09:51.173Z,-0.42
2022-12-04T03:12:24.621Z,-0.41
2022-12-04T03:14:57.083Z,-0.43
2022-12-04T03:17:28.582Z,-0.44
2022-12-04T03:19:59.764Z,-0.46
2022-12-04T03:22:27.584Z,-0.46
2022-12-04T03:24:56.624Z,-0.48
2022-12-04T03:27:27.725Z,-0.48
2022-12-04T03:30:01.545Z,-0.51
2022-12-04T03:32:33.471Z,-0.49
2022-12-04T03:35:05.317Z,-0.48
2022-12-04T03:37:39.502Z,-0.46
2022-12-04T03:40:14.695Z,-0.45
2022-12-04T03:42:47.801Z,-0.45
2022-12-04T03:45:21.982Z,-0.43
2022-12-04T03:47:56.729Z,-0.41
2022-12-04T03:50:32.169Z,-0.41
2022-12-04T03:53:05.403Z,-0.40
2022-12-04T03:55:39.253Z,-0.40
2022-12-04T03:58:12.809Z,-0.40
2022-12-04T04:00:42.868Z,-0.41
2022-12-04T04:03:13.995Z,-0.41
2022-12-04T04:05:44.890Z,-0.41
2022-12-04T04:08:16.010Z,-0.39
2022-12-04T04:10:42.456Z,-0.39
2022-12-04T04:13:12.647Z,-0.39
2022-12-04T04:15:45.874Z,-0.37
2022-12-04T04:18:12.475Z,-0.34
2022-12-04T04:20:44.168Z,-0.33
2022-12-04T04:23:11.917Z,-0.34
2022-12-04T04:25:42.009Z,-0.35
2022-12-04T04:28:27.882Z,-0.31
2022-12-04T04:30:59.472Z,-0.32
2022-12-04T04:33:28.078Z,-0.31
2022-12-04T04:36:00.222Z,-0.30
2022-12-04T04:38:31.810Z,-0.29
2022-12-04T04:41:04.123Z,-0.26
2022-12-04T04:43:36.569Z,-0.26
2022-12-04T04:46:08.261Z,-0.25
2022-12-04T04:48:39.145Z,-0.26
2022-12-04T04:51:06.345Z,-0.26
2022-12-04T04:53:36.665Z,-0.22
2022-12-04T04:56:05.506Z,-0.23
2022-12-04T04:58:32.050Z,-0.22
2022-12-04T05:01:02.551Z,-0.19
2022-12-04T05:03:31.581Z,-0.16
2022-12-04T05:05:58.142Z,-0.14
2022-12-04T05:08:24.709Z,-0.15
2022-12-04T05:10:51.268Z,-0.17
2022-12-04T05:13:18.616Z,-0.14
2022-12-04T05:15:45.695Z,-0.11
2022-12-04T05:18:12.273Z,-0.10
2022-12-04T05:20:40.867Z,-0.11
2022-12-04T05:23:07.375Z,-0.08
2022-12-04T05:25:33.904Z,-0.06
2022-12-04T05:28:00.422Z,-0.08
2022-12-04T05:30:26.939Z,-0.10
2022-12-04T05:32:53.408Z,-0.07
2022-12-04T05:35:19.911Z,-0.09
2022-12-04T05:37:47.745Z,-0.07
2022-12-04T05:40:14.430Z,-0.09
2022-12-04T05:42:41.115Z,-0.07
2022-12-04T05:45:08.581Z,-0.07
2022-12-04T05:47:38.204Z,-0.08
2022-12-04T05:50:05.860Z,-0.08
2022-12-04T05:52:32.380Z,-0.06
2022-12-04T05:55:00.247Z,-0.05
2022-12-04T05:57:29.821Z,-0.06
2022-12-04T05:59:56.975Z,-0.04
2022-12-04T06:02:23.794Z,-0.06
2022-12-04T06:04:50.555Z,-0.08
2022-12-04T06:07:17.065Z,-0.07
2022-12-04T06:09:43.639Z,-0.08
2022-12-04T06:12:11.480Z,-0.06
2022-12-04T06:14:39.967Z,-0.05
2022-12-04T06:17:07.072Z,-0.04
2022-12-04T06:19:33.574Z,-0.02
2022-12-04T06:22:00.093Z,-0.04
2022-12-04T06:24:26.651Z,0.02
2022-12-04T06:29:43.822Z,-0.02
2022-12-04T06:32:10.349Z,-0.02
2022-12-04T06:34:36.839Z,0.04
2022-12-04T06:37:03.438Z,0.04
2022-12-04T06:39:29.939Z,0.06
2022-12-04T06:41:56.455Z,0.08
2022-12-04T06:44:22.978Z,0.06
2022-12-04T06:46:50.845Z,0.06
2022-12-04T06:49:17.336Z,0.05
2022-12-04T06:51:43.858Z,0.08
2022-12-04T06:54:10.616Z,0.11
2022-12-04T06:56:37.161Z,0.11
2022-12-04T06:59:04.633Z,0.11
2022-12-04T07:01:33.131Z,0.12
2022-12-04T07:04:02.394Z,0.14
2022-12-04T07:06:31.015Z,0.16
2022-12-04T07:08:59.816Z,0.18
2022-12-04T07:11:27.059Z,0.20
2022-12-04T07:13:55.022Z,0.23
2022-12-04T07:16:23.327Z,0.23
2022-12-04T07:18:50.388Z,0.25
2022-12-04T07:21:20.766Z,0.26
2022-12-04T07:23:49.663Z,0.24
2022-12-04T07:26:16.243Z,0.22
2022-12-04T07:28:42.997Z,0.24
2022-12-04T07:31:11.685Z,0.25
2022-12-04T07:33:38.349Z,0.28
2022-12-04T07:36:07.634Z,0.30
2022-12-04T07:38:35.538Z,0.32
2022-12-04T07:41:04.549Z,0.33
2022-12-04T07:43:32.108Z,0.34
2022-12-04T07:45:59.704Z,0.36
2022-12-04T07:48:31.708Z,0.39
2022-12-04T07:51:04.057Z,0.39
2022-12-04T07:53:30.557Z,0.37
2022-12-04T07:55:58.425Z,0.37
2022-12-04T07:58:24.996Z,0.50
2022-12-04T08:00:51.570Z,0.44
2022-12-04T08:03:18.088Z,0.43
2022-12-04T08:05:44.592Z,0.44
2022-12-04T08:08:11.244Z,0.47
2022-12-04T08:10:39.718Z,0.51
2022-12-04T08:13:07.662Z,0.52
2022-12-04T08:15:34.262Z,0.59
2022-12-04T08:18:01.230Z,0.65
2022-12-04T08:20:27.868Z,0.67
2022-12-04T08:22:54.506Z,0.69
2022-12-04T08:25:21.082Z,0.68
2022-12-04T08:27:47.884Z,0.68
2022-12-04T08:30:16.478Z,0.71
2022-12-04T08:32:43.088Z,0.67
2022-12-04T08:35:09.675Z,0.73
2022-12-04T08:37:36.269Z,0.76
2022-12-04T08:40:03.307Z,0.76
2022-12-04T08:42:30.063Z,0.77
2022-12-04T08:44:56.675Z,0.78
2022-12-04T08:47:24.611Z,0.81
2022-12-04T08:49:51.237Z,0.82
2022-12-04T08:52:17.813Z,0.85
2022-12-04T08:54:44.566Z,0.89
2022-12-04T08:57:11.173Z,0.91
2022-12-04T08:59:37.749Z,0.92
2022-12-04T09:02:04.513Z,0.94
2022-12-04T09:04:34.509Z,0.94
2022-12-04T09:07:01.323Z,0.95
2022-12-04T09:09:28.090Z,1.04
2022-12-04T09:11:54.677Z,1.08
2022-12-04T09:14:21.218Z,1.15
2022-12-04T09:16:47.795Z,1.17
2022-12-04T09:19:14.405Z,1.22
2022-12-04T09:21:42.418Z,1.24
2022-12-04T09:24:08.959Z,1.26
2022-12-04T09:26:35.630Z,1.28
2022-12-04T09:29:04.309Z,1.28
2022-12-04T09:31:31.716Z,1.30
2022-12-04T09:33:58.802Z,1.32
2022-12-04T09:36:25.390Z,1.34
2022-12-04T09:38:54.344Z,1.35
2022-12-04T09:41:50.728Z,1.36
2022-12-04T09:44:21.416Z,1.33
2022-12-04T09:46:52.042Z,1.38
2022-12-04T09:49:23.831Z,1.39
2022-12-04T09:51:52.746Z,1.39
2022-12-04T09:54:25.907Z,1.42
2022-12-04T09:56:55.210Z,1.46
2022-12-04T09:59:24.685Z,1.47
2022-12-04T10:01:56.230Z,1.50
2022-12-04T10:04:22.956Z,1.50
2022-12-04T10:06:58.479Z,1.55
2022-12-04T10:09:38.901Z,1.56
2022-12-04T10:12:19.321Z,1.56
2022-12-04T10:15:08.735Z,1.59
2022-12-04T10:17:55.604Z,1.65
2022-12-04T10:20:39.840Z,1.69
2022-12-04T10:23:17.909Z,1.75
2022-12-04T10:25:46.486Z,1.76
2022-12-04T10:28:23.278Z,1.80
2022-12-04T10:30:51.283Z,1.83
2022-12-04T10:33:23.535Z,1.87
2022-12-04T10:35:52.593Z,1.87
2022-12-04T10:38:28.826Z,1.91
2022-12-04T10:41:02.583Z,1.92
2022-12-04T10:43:36.435Z,1.96
2022-12-04T10:46:03.046Z,1.93
2022-12-04T10:48:34.998Z,1.97
2022-12-04T10:51:01.653Z,1.94
2022-12-04T10:53:31.646Z,1.95
2022-12-04T10:56:12.683Z,1.96
2022-12-04T10:58:39.227Z,1.96
2022-12-04T11:01:08.348Z,1.97
2022-12-04T11:03:35.440Z,1.93
2022-12-04T11:06:04.471Z,1.91
2022-12-04T11:08:35.695Z,1.90
2022-12-04T11:11:02.706Z,1.98
2022-12-04T11:13:30.804Z,1.99
2022-12-04T11:15:58.989Z,2.03
2022-12-04T11:18:27.655Z,2.05
2022-12-04T11:20:57.902Z,2.09
2022-12-04T11:23:25.480Z,2.07
2022-12-04T11:25:59.391Z,2.09
2022-12-04T11:28:47.887Z,2.06
2022-12-04T11:31:20.310Z,2.09
2022-12-04T11:33:49.934Z,2.10
2022-12-04T11:36:21.543Z,2.08
2022-12-04T11:38:49.414Z,2.08
2022-12-04T11:41:25.468Z,2.10
2022-12-04T11:43:58.233Z,2.13
2022-12-04T11:46:28.588Z,2.18
2022-12-04T11:48:55.622Z,2.23
2022-12-04T11:51:34.383Z,2.26
2022-12-04T11:54:06.866Z,2.31
2022-12-04T11:56:36.148Z,2.36
2022-12-04T11:59:28.586Z,2.46
2022-12-04T12:02:10.398Z,2.53
2022-12-04T12:05:02.903Z,2.63
2022-12-04T12:07:43.187Z,2.70
2022-12-04T12:10:16.781Z,2.72
2022-12-04T12:12:56.385Z,2.72
2022-12-04T12:15:38.773Z,2.75
2022-12-04T12:18:22.458Z,2.72
2022-12-04T12:20:57.519Z,2.72
2022-12-04T12:23:41.168Z,2.75
2022-12-04T12:26:11.526Z,2.75
2022-12-04T12:28:58.248Z,2.78
2022-12-04T12:31:40.633Z,2.82
2022-12-04T12:34:13.067Z,2.85
2022-12-04T12:36:44.179Z,2.91
2022-12-04T12:39:12.581Z,2.94
2022-12-04T12:41:47.545Z,2.94
2022-12-04T12:44:19.835Z,2.94
2022-12-04T12:46:51.356Z,2.97
2022-12-04T12:49:21.260Z,3.00
2022-12-04T12:51:52.696Z,3.04
2022-12-04T12:54:30.924Z,3.05
2022-12-04T12:57:16.979Z,3.06
2022-12-04T12:59:47.912Z,3.08
2022-12-04T13:02:25.354Z,3.08
2022-12-04T13:04:55.362Z,3.09
2022-12-04T13:07:29.297Z,3.17
2022-12-04T13:10:02.957Z,3.24
2022-12-04T13:12:35.180Z,3.29
2022-12-04T13:15:01.872Z,3.34
2022-12-04T13:17:35.210Z,3.38
2022-12-04T13:20:10.268Z,3.41
2022-12-04T13:22:46.861Z,3.43
2022-12-04T13:25:29.801Z,3.42
2022-12-04T13:28:07.803Z,3.42
2022-12-04T13:30:44.273Z,3.42
2022-12-04T13:33:28.479Z,3.41
2022-12-04T13:36:14.648Z,3.44
2022-12-04T13:38:58.288Z,3.46
2022-12-04T13:41:27.572Z,3.48
2022-12-04T13:43:55.206Z,3.51
2022-12-04T13:46:28.702Z,3.50
2022-12-04T13:49:08.007Z,3.48
2022-12-04T13:51:36.868Z,3.49
2022-12-04T13:54:21.442Z,3.48
2022-12-04T13:56:50.416Z,3.50
2022-12-04T13:59:35.611Z,3.55
2022-12-04T14:02:08.206Z,3.55
2022-12-04T14:04:44.068Z,3.53
2022-12-04T14:07:25.085Z,3.53
2022-12-04T14:09:53.743Z,3.56
2022-12-04T14:12:27.072Z,3.55
2022-12-04T14:14:57.519Z,3.55
2022-12-04T14:17:26.294Z,3.57
2022-12-04T14:19:56.178Z,3.30
2022-12-04T14:22:29.384Z,3.07
2022-12-04T14:25:06.432Z,3.01
2022-12-04T14:27:42.336Z,2.98
2022-12-04T14:30:17.801Z,2.99
2022-12-04T14:32:44.852Z,3.08
2022-12-04T14:35:15.527Z,3.08
2022-12-04T14:37:50.283Z,3.03
2022-12-04T14:40:21.463Z,2.98
2022-12-04T14:42:49.072Z,2.92
2022-12-04T14:45:31.256Z,2.89
2022-12-04T14:48:18.278Z,2.88
2022-12-04T14:50:52.108Z,2.85
2022-12-04T14:53:30.864Z,2.89
2022-12-04T14:56:12.269Z,2.88
2022-12-04T14:58:39.083Z,2.88
2022-12-04T15:01:16.002Z,2.90
2022-12-04T15:03:44.765Z,2.87
2022-12-04T15:06:19.917Z,2.87
2022-12-04T15:08:49.406Z,2.88
2022-12-04T15:11:18.459Z,2.88
2022-12-04T15:13:45.081Z,2.88
2022-12-04T15:16:16.742Z,2.90
2022-12-04T15:18:53.750Z,2.94
2022-12-04T15:21:22.197Z,2.94
2022-12-04T15:23:49.159Z,2.93
2022-12-04T15:26:18.258Z,2.92
2022-12-04T15:28:50.309Z,2.90
2022-12-04T15:31:20.069Z,2.90
2022-12-04T15:33:48.796Z,2.89
2022-12-04T15:36:19.861Z,2.89
2022-12-04T15:38:48.998Z,2.88
2022-12-04T15:41:28.616Z,2.87
2022-12-04T15:43:55.122Z,2.86
2022-12-04T15:46:24.929Z,2.85
2022-12-04T15:48:51.538Z,2.88
2022-12-04T15:51:21.123Z,2.83
2022-12-04T15:53:49.011Z,2.83
2022-12-04T15:56:18.504Z,2.87
2022-12-04T15:58:54.442Z,2.87
2022-12-04T16:01:21.546Z,2.83
2022-12-04T16:03:50.380Z,2.84
2022-12-04T16:06:19.445Z,2.82
2022-12-04T16:08:49.550Z,2.77
2022-12-04T16:11:28.275Z,2.76
2022-12-04T16:14:14.094Z,2.75
2022-12-04T16:16:43.768Z,2.75
2022-12-04T16:19:16.075Z,2.74
2022-12-04T16:21:42.920Z,2.76
2022-12-04T16:24:12.009Z,2.75
2022-12-04T16:26:38.512Z,2.78
2022-12-04T16:29:05.004Z,2.78
2022-12-04T16:31:31.682Z,2.84
2022-12-04T16:33:58.244Z,2.77
2022-12-04T16:36:24.828Z,2.76
2022-12-04T16:38:51.330Z,2.68
2022-12-04T16:41:20.076Z,2.63
2022-12-04T16:43:54.706Z,2.61
2022-12-04T16:46:23.353Z,2.60
2022-12-04T16:48:49.878Z,2.59
2022-12-04T16:51:18.098Z,2.61
2022-12-04T16:53:44.678Z,2.66
2022-12-04T16:56:12.248Z,2.63
2022-12-04T16:58:40.110Z,2.62
2022-12-04T17:01:18.034Z,2.73
2022-12-04T17:03:44.671Z,3.01
2022-12-04T17:06:11.281Z,2.91
2022-12-04T17:08:37.794Z,2.89
2022-12-04T17:11:04.380Z,2.92
2022-12-04T17:13:30.964Z,2.96
2022-12-04T17:15:59.022Z,2.97
2022-12-04T17:18:25.539Z,3.00
2022-12-04T17:20:52.045Z,2.99
2022-12-04T17:23:18.549Z,2.99
2022-12-04T17:25:45.081Z,3.00
2022-12-04T17:28:11.593Z,3.04
2022-12-04T17:30:38.108Z,3.03
2022-12-04T17:33:05.960Z,3.01
2022-12-04T17:35:32.573Z,3.05
2022-12-04T17:38:04.045Z,3.04
2022-12-04T17:40:32.341Z,3.05
2022-12-04T17:42:58.865Z,3.09
2022-12-04T17:45:25.390Z,3.13
2022-12-04T17:47:51.935Z,3.15
2022-12-04T17:50:19.900Z,3.13
2022-12-04T17:52:46.474Z,3.16
2022-12-04T17:55:13.113Z,3.15
2022-12-04T17:57:39.620Z,3.18
2022-12-04T18:00:07.702Z,3.17
2022-12-04T18:02:34.278Z,3.15
2022-12-04T18:05:00.799Z,3.17
2022-12-04T18:07:30.367Z,3.10
2022-12-04T18:09:57.204Z,3.21
2022-12-04T18:12:23.894Z,3.11
2022-12-04T18:14:50.389Z,3.08
2022-12-04T18:17:16.986Z,3.00
2022-12-04T18:19:43.635Z,2.96
2022-12-04T18:22:10.155Z,2.99
2022-12-04T18:24:38.414Z,2.93
2022-12-04T18:27:04.969Z,2.94
2022-12-04T18:29:31.556Z,2.90
2022-12-04T18:31:58.144Z,2.83
2022-12-04T18:34:24.780Z,2.76
2022-12-04T18:36:51.628Z,2.71
2022-12-04T18:39:21.042Z,2.67
2022-12-04T18:41:49.209Z,2.60
2022-12-04T18:44:16.859Z,2.58
2022-12-04T18:46:43.823Z,2.57
2022-12-04T18:49:11.141Z,2.53
2022-12-04T18:51:39.439Z,2.54
2022-12-04T18:54:08.070Z,2.58
2022-12-04T18:56:35.427Z,2.58
2022-12-04T18:59:06.129Z,2.62
2022-12-04T19:01:32.844Z,2.58
2022-12-04T19:04:01.540Z,2.58
2022-12-04T19:06:29.594Z,2.58
2022-12-04T19:08:58.024Z,2.60
2022-12-04T19:11:24.571Z,2.63
2022-12-04T19:13:51.107Z,2.68
2022-12-04T19:16:19.305Z,2.66
2022-12-04T19:18:46.624Z,2.58
2022-12-04T19:21:14.067Z,2.51
2022-12-04T19:23:41.015Z,2.45
2022-12-04T19:26:07.946Z,2.45
2022-12-04T19:28:35.276Z,2.40
2022-12-04T19:31:01.806Z,2.33
2022-12-04T19:33:29.741Z,2.45
2022-12-04T19:35:57.951Z,2.43
2022-12-04T19:38:24.715Z,2.36
2022-12-04T19:41:02.152Z,2.26
2022-12-04T19:43:28.713Z,2.27
2022-12-04T19:45:55.251Z,2.42
2022-12-04T19:48:21.787Z,2.39
2022-12-04T19:50:49.662Z,2.46
2022-12-04T19:53:16.165Z,2.51
2022-12-04T19:55:42.722Z,2.56
2022-12-04T19:58:09.202Z,2.51
2022-12-04T20:00:35.704Z,2.54
2022-12-04T20:03:02.251Z,2.52
2022-12-04T20:05:28.838Z,2.48
2022-12-04T20:10:23.290Z,2.44
2022-12-04T20:12:49.818Z,2.45
2022-12-04T20:15:16.396Z,2.48
2022-12-04T20:17:42.904Z,2.50
2022-12-04T20:20:09.756Z,2.54
2022-12-04T20:22:36.280Z,2.55
2022-12-04T20:25:04.825Z,2.51
2022-12-04T20:27:31.347Z,2.45
2022-12-04T20:29:57.961Z,2.48
2022-12-04T20:32:24.668Z,2.53
2022-12-04T20:34:51.195Z,2.52
2022-12-04T20:37:17.757Z,2.58
2022-12-04T20:39:44.334Z,2.56
2022-12-04T20:42:12.313Z,2.46
2022-12-04T20:44:38.820Z,2.32
2022-12-04T20:47:05.422Z,2.20
2022-12-04T20:49:32.066Z,2.12
2022-12-04T20:51:58.573Z,2.05
2022-12-04T20:54:25.196Z,2.00
2022-12-04T20:56:52.065Z,1.98
2022-12-04T20:59:21.557Z,1.97
2022-12-04T21:01:48.305Z,1.95
2022-12-04T21:04:15.354Z,1.98
2022-12-04T21:06:42.166Z,1.97
2022-12-04T21:09:11.690Z,1.96
2022-12-04T21:11:39.735Z,1.98
2022-12-04T21:14:07.910Z,2.00
2022-12-04T21:16:35.886Z,2.01
2022-12-04T21:19:02.869Z,1.99
2022-12-04T21:21:29.447Z,2.01
2022-12-04T21:23:55.948Z,1.99
2022-12-04T21:26:22.487Z,1.98
2022-12-04T21:28:49.009Z,1.95
2022-12-04T21:31:15.611Z,1.87
2022-12-04T21:33:43.490Z,1.86
2022-12-04T21:36:10.205Z,1.82
2022-12-04T21:38:38.223Z,1.81
2022-12-04T21:41:06.500Z,1.80
2022-12-04T21:43:34.002Z,1.81
2022-12-04T21:46:08.819Z,1.81
2022-12-04T21:48:36.302Z,1.79
2022-12-04T21:51:16.863Z,1.75
2022-12-04T21:53:53.385Z,1.71
2022-12-04T21:56:20.315Z,1.70
2022-12-04T21:58:46.798Z,1.73
2022-12-04T22:01:15.204Z,1.73
2022-12-04T22:03:41.916Z,1.71
2022-12-04T22:06:10.019Z,1.73
2022-12-04T22:08:37.782Z,1.68
2022-12-04T22:11:06.369Z,1.64
2022-12-04T22:13:33.037Z,1.61
2022-12-04T22:16:02.997Z,1.62
2022-12-04T22:18:29.689Z,1.63
2022-12-04T22:20:56.283Z,1.66
2022-12-04T22:23:24.309Z,1.71
2022-12-04T22:25:50.959Z,1.72
2022-12-04T22:28:17.606Z,1.72
2022-12-04T22:30:44.162Z,1.74
2022-12-04T22:33:10.795Z,1.73
2022-12-04T22:35:37.332Z,1.72
2022-12-04T22:38:04.030Z,1.71
2022-12-04T22:40:32.011Z,1.81
2022-12-04T22:42:58.610Z,1.96
2022-12-04T22:45:25.227Z,2.09
2022-12-04T22:47:51.992Z,2.22
2022-12-04T22:50:18.810Z,2.20
2022-12-04T22:52:45.420Z,2.22
2022-12-04T22:55:11.960Z,2.22
2022-12-04T22:57:39.961Z,2.26
2022-12-04T23:00:07.849Z,2.24
2022-12-04T23:02:34.536Z,2.30
2022-12-04T23:05:01.195Z,2.40
2022-12-04T23:07:27.919Z,2.36
2022-12-04T23:09:54.695Z,2.37
2022-12-04T23:12:21.410Z,2.35
2022-12-04T23:14:49.546Z,2.23
2022-12-04T23:17:16.165Z,2.35
2022-12-04T23:19:42.786Z,2.44
2022-12-04T23:22:09.448Z,2.49
2022-12-04T23:24:36.065Z,2.55
2022-12-04T23:27:02.594Z,2.44
2022-12-04T23:29:52.302Z,2.40
2022-12-04T23:32:17.202Z,2.43
2022-12-04T23:34:43.853Z,2.64
2022-12-04T23:37:10.433Z,2.63
2022-12-04T23:39:36.941Z,2.68
2022-12-04T23:42:03.900Z,2.68
2022-12-04T23:44:30.451Z,2.78
2022-12-04T23:46:57.057Z,2.71
2022-12-04T23:49:24.971Z,2.75
2022-12-04T23:51:51.575Z,2.79
2022-12-04T23:54:18.114Z,2.84
2022-12-04T23:56:44.649Z,2.90
2022-12-04T23:59:11.198Z,2.95
